Puerto Madryn, Argentina
Current Conditions -  °F | °C
As of 6:00 AM on Friday 24 Oct 2014 (Local Time) from SAVC Reporting Station
Clear Clear  
Wind Chill: 11°   Ceiling: Unl
Heat Index: 11°   Visibility: 6mi
Dew Point: -3°   Wind: 7mph
Humidity: 38%   Direction: 290°WNW
Pressure: 30.03"   Gusts: NA
Location:  42.77°S, 65.05°W
Report Text: SAVC 240900Z 29006KT CAVOK 11/M03 Q1017
Loading
Personal Weather Stations






























Interactive Weather Map
Tropical Storm Tracking
New forecast layout! Learn more

10-Day Weather Forecast

Advertisements
Track Severe Weather on mobile